createdAt,value
2023-05-02T00:00:14.053Z,7.10
2023-05-02T00:00:46.700Z,9.10
2023-05-02T00:01:19.366Z,8.90
2023-05-02T00:01:52.153Z,8.90
2023-05-02T00:02:24.921Z,8.00
2023-05-02T00:02:57.758Z,7.30
2023-05-02T00:03:30.577Z,8.40
2023-05-02T00:04:03.538Z,8.90
2023-05-02T00:04:36.381Z,7.30
2023-05-02T00:05:09.167Z,8.10
2023-05-02T00:05:41.836Z,9.20
2023-05-02T00:06:14.589Z,8.30
2023-05-02T00:06:47.390Z,7.20
2023-05-02T00:07:20.043Z,8.80
2023-05-02T00:07:52.719Z,7.80
2023-05-02T00:08:25.379Z,7.50
2023-05-02T00:08:58.045Z,7.10
2023-05-02T00:09:30.716Z,9.00
2023-05-02T00:10:03.402Z,7.70
2023-05-02T00:10:36.052Z,8.70
2023-05-02T00:11:08.737Z,8.50
2023-05-02T00:11:41.401Z,8.00
2023-05-02T00:12:14.068Z,9.00
2023-05-02T00:12:46.736Z,8.20
2023-05-02T00:13:19.400Z,7.90
2023-05-02T00:13:52.079Z,8.70
2023-05-02T00:14:24.754Z,7.90
2023-05-02T00:14:57.448Z,7.30
2023-05-02T00:15:30.139Z,7.60
2023-05-02T00:16:02.795Z,6.70
2023-05-02T00:16:35.485Z,7.60
2023-05-02T00:17:08.230Z,7.70
2023-05-02T00:17:41.030Z,7.40
2023-05-02T00:18:13.719Z,10.00
2023-05-02T00:18:46.372Z,7.30
2023-05-02T00:19:19.040Z,8.60
2023-05-02T00:19:51.746Z,8.40
2023-05-02T00:20:24.430Z,8.20
2023-05-02T00:20:57.088Z,7.20
2023-05-02T00:21:29.744Z,7.30
2023-05-02T00:22:02.421Z,8.90
2023-05-02T00:22:35.083Z,7.90
2023-05-02T00:23:07.752Z,7.20
2023-05-02T00:23:40.436Z,7.50
2023-05-02T00:24:13.107Z,7.50
2023-05-02T00:24:45.792Z,7.70
2023-05-02T00:25:18.460Z,9.90
2023-05-02T00:25:51.144Z,10.40
2023-05-02T00:26:23.792Z,7.70
2023-05-02T00:26:56.451Z,8.10
2023-05-02T00:27:29.123Z,7.90
2023-05-02T00:28:01.801Z,8.70
2023-05-02T00:28:32.873Z,7.40
2023-05-02T00:29:05.547Z,8.20
2023-05-02T00:29:38.226Z,7.00
2023-05-02T00:30:10.924Z,7.80
2023-05-02T00:30:43.629Z,7.40
2023-05-02T00:31:16.289Z,8.30
2023-05-02T00:31:48.966Z,6.80
2023-05-02T00:32:21.667Z,9.40
2023-05-02T00:32:54.477Z,7.80
2023-05-02T00:33:27.141Z,6.60
2023-05-02T00:33:59.810Z,7.30
2023-05-02T00:34:32.512Z,7.90
2023-05-02T00:35:05.168Z,8.40
2023-05-02T00:35:37.836Z,9.00
2023-05-02T00:36:10.498Z,7.80
2023-05-02T00:36:43.171Z,8.50
2023-05-02T00:37:15.840Z,8.10
2023-05-02T00:37:48.529Z,9.00
2023-05-02T00:38:21.204Z,9.20
2023-05-02T00:38:53.892Z,7.90
2023-05-02T00:39:26.564Z,7.70
2023-05-02T00:39:59.549Z,8.00
2023-05-02T00:40:25.852Z,9.20
2023-05-02T00:40:58.572Z,8.60
2023-05-02T00:41:31.229Z,7.60
2023-05-02T00:42:03.894Z,7.60
2023-05-02T00:42:36.826Z,9.10
2023-05-02T00:43:09.460Z,7.20
2023-05-02T00:43:42.133Z,8.30
2023-05-02T00:44:14.811Z,7.40
2023-05-02T00:44:47.484Z,8.10
2023-05-02T00:45:20.143Z,7.20
2023-05-02T00:45:52.836Z,7.40
2023-05-02T00:46:25.500Z,8.50
2023-05-02T00:46:58.230Z,7.10
2023-05-02T00:47:30.938Z,7.10
2023-05-02T00:48:03.649Z,8.00
2023-05-02T00:48:36.291Z,8.30
2023-05-02T00:49:08.969Z,8.20
2023-05-02T00:49:41.645Z,8.90
2023-05-02T00:50:14.339Z,9.20
2023-05-02T00:50:47.007Z,7.50
2023-05-02T00:51:19.683Z,8.70
2023-05-02T00:51:52.340Z,7.60
2023-05-02T00:52:25.007Z,7.30
2023-05-02T00:52:57.673Z,9.70
2023-05-02T00:53:30.335Z,7.50
2023-05-02T00:54:02.997Z,7.50
2023-05-02T00:54:35.667Z,6.30
2023-05-02T00:55:08.357Z,7.10
2023-05-02T00:55:41.065Z,7.50
2023-05-02T00:56:13.736Z,7.90
2023-05-02T00:56:46.423Z,7.80
2023-05-02T00:57:19.097Z,7.30
2023-05-02T00:57:51.778Z,8.70
2023-05-02T00:58:24.423Z,8.50
2023-05-02T00:58:57.082Z,8.10
2023-05-02T00:59:29.757Z,7.10
2023-05-02T01:00:02.609Z,5.70
2023-05-02T01:00:35.300Z,9.00
2023-05-02T01:01:08.027Z,6.90
2023-05-02T01:01:40.732Z,7.20
2023-05-02T01:02:13.591Z,7.00
2023-05-02T01:02:46.330Z,7.10
2023-05-02T01:03:19.137Z,8.70
2023-05-02T01:03:52.062Z,7.40
2023-05-02T01:04:24.829Z,7.10
2023-05-02T01:04:57.496Z,10.20
2023-05-02T01:05:30.161Z,6.70
2023-05-02T01:06:02.894Z,6.80
2023-05-02T01:06:35.601Z,7.80
2023-05-02T01:07:08.295Z,5.10
2023-05-02T01:07:40.964Z,8.50
2023-05-02T01:08:13.635Z,7.70
2023-05-02T01:08:46.322Z,6.60
2023-05-02T01:09:19.000Z,6.50
2023-05-02T01:09:51.719Z,7.60
2023-05-02T01:10:24.388Z,7.20
2023-05-02T01:10:57.041Z,7.10
2023-05-02T01:11:29.725Z,8.70
2023-05-02T01:12:02.392Z,7.50
2023-05-02T01:12:35.057Z,7.30
2023-05-02T01:13:07.722Z,8.40
2023-05-02T01:13:40.387Z,7.10
2023-05-02T01:14:13.078Z,7.60
2023-05-02T01:14:45.747Z,7.90
2023-05-02T01:15:18.404Z,8.20
2023-05-02T01:15:51.094Z,7.40
2023-05-02T01:16:23.797Z,7.30
2023-05-02T01:16:56.492Z,7.10
2023-05-02T01:17:29.245Z,7.50
2023-05-02T01:18:01.975Z,7.90
2023-05-02T01:18:34.640Z,8.10
2023-05-02T01:19:07.310Z,7.40
2023-05-02T01:19:39.987Z,6.80
2023-05-02T01:20:12.676Z,6.50
2023-05-02T01:20:45.347Z,6.40
2023-05-02T01:21:18.039Z,7.80
2023-05-02T01:21:50.690Z,6.60
2023-05-02T01:22:23.365Z,6.80
2023-05-02T01:22:56.029Z,7.80
2023-05-02T01:23:28.697Z,8.80
2023-05-02T01:24:01.358Z,6.30
2023-05-02T01:24:34.042Z,7.10
2023-05-02T01:25:06.749Z,6.70
2023-05-02T01:25:39.404Z,6.90
2023-05-02T01:26:12.061Z,6.70
2023-05-02T01:26:44.729Z,7.10
2023-05-02T01:27:17.396Z,6.10
2023-05-02T01:27:50.060Z,7.50
2023-05-02T01:28:22.752Z,6.20
2023-05-02T01:28:55.395Z,7.50
2023-05-02T01:29:28.065Z,8.30
2023-05-02T01:30:01.046Z,6.70
2023-05-02T01:30:27.302Z,6.40
2023-05-02T01:30:58.405Z,6.80
2023-05-02T01:31:31.153Z,7.30
2023-05-02T01:32:03.921Z,7.80
2023-05-02T01:32:36.677Z,7.00
2023-05-02T01:33:09.409Z,6.40
2023-05-02T01:33:42.078Z,6.80
2023-05-02T01:34:14.743Z,6.80
2023-05-02T01:34:47.426Z,7.30
2023-05-02T01:35:20.108Z,8.10
2023-05-02T01:35:52.764Z,7.20
2023-05-02T01:36:25.419Z,6.70
2023-05-02T01:36:58.100Z,6.80
2023-05-02T01:37:30.765Z,6.40
2023-05-02T01:38:03.438Z,7.40
2023-05-02T01:38:36.129Z,6.70
2023-05-02T01:39:08.800Z,7.20
2023-05-02T01:39:41.475Z,6.90
2023-05-02T01:40:14.157Z,7.80
2023-05-02T01:40:46.844Z,7.20
2023-05-02T01:41:19.496Z,7.70
2023-05-02T01:41:52.193Z,6.10
2023-05-02T01:42:24.836Z,7.50
2023-05-02T01:42:57.491Z,6.40
2023-05-02T01:43:30.158Z,7.30
2023-05-02T01:44:02.843Z,7.30
2023-05-02T01:44:35.504Z,7.80
2023-05-02T01:45:08.222Z,7.90
2023-05-02T01:45:40.877Z,6.60
2023-05-02T01:46:13.674Z,7.60
2023-05-02T01:46:46.512Z,6.50
2023-05-02T01:47:19.319Z,7.30
2023-05-02T01:47:51.998Z,8.00
2023-05-02T01:48:24.664Z,7.10
2023-05-02T01:48:57.331Z,6.40
2023-05-02T01:49:30.016Z,8.00
2023-05-02T01:50:02.770Z,6.50
2023-05-02T01:50:35.443Z,6.50
2023-05-02T01:51:08.115Z,7.00
2023-05-02T01:51:40.771Z,5.90
2023-05-02T01:52:13.438Z,7.10
2023-05-02T01:52:46.118Z,7.60
2023-05-02T01:53:18.791Z,9.00
2023-05-02T01:53:51.457Z,7.20
2023-05-02T01:54:24.124Z,6.70
2023-05-02T01:54:56.810Z,6.80
2023-05-02T01:55:29.479Z,6.00
2023-05-02T01:56:02.151Z,6.00
2023-05-02T01:56:34.837Z,7.70
2023-05-02T01:57:07.501Z,7.30
2023-05-02T01:57:40.167Z,6.30
2023-05-02T01:58:12.834Z,6.40
2023-05-02T01:58:45.504Z,6.30
2023-05-02T01:59:18.215Z,6.40
2023-05-02T01:59:49.325Z,7.80
2023-05-02T02:00:21.992Z,6.40
2023-05-02T02:00:54.670Z,6.30
2023-05-02T02:01:27.389Z,6.90
2023-05-02T02:02:00.149Z,7.80
2023-05-02T02:02:32.810Z,8.60
2023-05-02T02:03:05.490Z,5.80
2023-05-02T02:03:38.223Z,6.60
2023-05-02T02:04:10.947Z,8.10
2023-05-02T02:04:43.687Z,6.10
2023-05-02T02:05:16.421Z,6.60
2023-05-02T02:05:49.092Z,5.80
2023-05-02T02:06:21.813Z,7.70
2023-05-02T02:06:54.518Z,6.70
2023-05-02T02:07:27.204Z,5.70
2023-05-02T02:07:59.883Z,8.70
2023-05-02T02:08:32.562Z,5.90
2023-05-02T02:09:05.215Z,6.80
2023-05-02T02:09:37.900Z,7.00
2023-05-02T02:10:10.576Z,6.80
2023-05-02T02:10:43.262Z,6.00
2023-05-02T02:11:15.915Z,8.20
2023-05-02T02:11:48.576Z,6.80
2023-05-02T02:12:21.241Z,6.70
2023-05-02T02:12:53.901Z,7.90
2023-05-02T02:13:26.566Z,5.40
2023-05-02T02:13:59.235Z,6.10
2023-05-02T02:14:31.898Z,5.50
2023-05-02T02:15:04.582Z,6.00
2023-05-02T02:15:37.263Z,5.40
2023-05-02T02:16:09.982Z,6.70
2023-05-02T02:16:42.707Z,7.00
2023-05-02T02:17:15.390Z,6.50
2023-05-02T02:17:48.109Z,7.60
2023-05-02T02:18:20.787Z,8.10
2023-05-02T02:18:53.458Z,6.00
2023-05-02T02:19:26.167Z,6.70
2023-05-02T02:19:59.260Z,6.30
2023-05-02T02:20:25.664Z,6.30
2023-05-02T02:20:58.328Z,6.10
2023-05-02T02:21:31.002Z,5.80
2023-05-02T02:22:03.674Z,9.30
2023-05-02T02:22:36.374Z,7.20
2023-05-02T02:23:09.056Z,6.40
2023-05-02T02:23:41.732Z,7.40
2023-05-02T02:24:14.450Z,7.20
2023-05-02T02:24:47.118Z,7.20
2023-05-02T02:25:19.792Z,9.40
2023-05-02T02:25:52.457Z,6.80
2023-05-02T02:26:25.128Z,5.50
2023-05-02T02:26:57.794Z,6.80
2023-05-02T02:27:30.469Z,7.70
2023-05-02T02:28:03.154Z,5.80
2023-05-02T02:28:35.819Z,9.20
2023-05-02T02:29:08.484Z,6.40
2023-05-02T02:29:41.162Z,8.40
2023-05-02T02:30:13.860Z,5.60
2023-05-02T02:30:46.680Z,6.80
2023-05-02T02:31:19.400Z,7.00
2023-05-02T02:31:52.059Z,7.70
2023-05-02T02:32:24.790Z,6.70
2023-05-02T02:32:57.625Z,7.10
2023-05-02T02:33:30.398Z,8.40
2023-05-02T02:34:03.058Z,7.60
2023-05-02T02:34:35.730Z,6.60
2023-05-02T02:35:08.431Z,6.80
2023-05-02T02:35:41.112Z,6.60
2023-05-02T02:36:13.785Z,7.00
2023-05-02T02:36:46.448Z,6.10
2023-05-02T02:37:19.143Z,7.40
2023-05-02T02:37:51.789Z,6.90
2023-05-02T02:38:24.468Z,6.30
2023-05-02T02:38:57.121Z,7.60
2023-05-02T02:39:29.800Z,6.60
2023-05-02T02:40:02.719Z,6.20
2023-05-02T02:40:29.050Z,7.60
2023-05-02T02:41:01.724Z,6.60
2023-05-02T02:41:34.405Z,7.40
2023-05-02T02:42:07.051Z,5.70
2023-05-02T02:42:39.739Z,8.40
2023-05-02T02:43:12.422Z,6.90
2023-05-02T02:43:45.097Z,7.20
2023-05-02T02:44:17.763Z,6.80
2023-05-02T02:44:50.461Z,6.40
2023-05-02T02:45:23.151Z,7.10
2023-05-02T02:45:55.823Z,7.20
2023-05-02T02:46:28.616Z,6.60
2023-05-02T02:47:01.278Z,7.60
2023-05-02T02:47:34.030Z,6.10
2023-05-02T02:48:06.751Z,6.50
2023-05-02T02:48:39.405Z,6.60
2023-05-02T02:49:12.079Z,8.00
2023-05-02T02:49:44.767Z,6.60
2023-05-02T02:50:17.511Z,7.60
2023-05-02T02:50:50.134Z,5.60
2023-05-02T02:51:22.805Z,7.30
2023-05-02T02:51:55.468Z,6.20
2023-05-02T02:52:28.134Z,8.00
2023-05-02T02:53:00.806Z,6.20
2023-05-02T02:53:33.461Z,7.00
2023-05-02T02:54:15.485Z,6.50
2023-05-02T02:54:38.238Z,6.10
2023-05-02T02:55:04.423Z,8.30
2023-05-02T02:55:31.175Z,6.70
2023-05-02T02:56:03.876Z,6.20
2023-05-02T02:56:36.553Z,6.00
2023-05-02T02:57:09.193Z,6.80
2023-05-02T02:57:41.867Z,6.30
2023-05-02T02:58:14.534Z,7.00
2023-05-02T02:58:47.216Z,7.00
2023-05-02T02:59:19.879Z,9.10
2023-05-02T02:59:52.553Z,8.00
2023-05-02T03:00:25.246Z,6.10
2023-05-02T03:00:57.936Z,5.90
2023-05-02T03:01:30.668Z,6.80
2023-05-02T03:02:03.382Z,7.00
2023-05-02T03:02:36.116Z,8.00
2023-05-02T03:03:08.861Z,5.90
2023-05-02T03:03:41.684Z,5.80
2023-05-02T03:04:14.514Z,7.40
2023-05-02T03:04:47.231Z,6.40
2023-05-02T03:05:19.885Z,7.80
2023-05-02T03:05:52.554Z,6.60
2023-05-02T03:06:25.352Z,5.90
2023-05-02T03:06:58.023Z,6.10
2023-05-02T03:07:30.684Z,6.30
2023-05-02T03:08:03.355Z,6.90
2023-05-02T03:08:36.018Z,7.50
2023-05-02T03:09:08.687Z,6.80
2023-05-02T03:09:41.348Z,8.10
2023-05-02T03:10:14.043Z,7.10
2023-05-02T03:10:46.697Z,6.80
2023-05-02T03:11:19.383Z,5.80
2023-05-02T03:11:52.044Z,6.50
2023-05-02T03:12:24.708Z,8.10
2023-05-02T03:12:57.393Z,7.70
2023-05-02T03:13:30.053Z,6.80
2023-05-02T03:14:02.750Z,5.30
2023-05-02T03:14:33.806Z,5.90
2023-05-02T03:15:06.489Z,6.70
2023-05-02T03:15:39.206Z,5.30
2023-05-02T03:16:11.923Z,7.50
2023-05-02T03:16:44.744Z,6.80
2023-05-02T03:17:17.468Z,6.20
2023-05-02T03:17:50.187Z,5.70
2023-05-02T03:18:22.854Z,7.10
2023-05-02T03:18:55.545Z,6.40
2023-05-02T03:19:28.206Z,7.20
2023-05-02T03:20:01.072Z,9.30
2023-05-02T03:20:27.436Z,7.70
2023-05-02T03:21:00.090Z,7.30
2023-05-02T03:21:32.765Z,6.70
2023-05-02T03:22:05.455Z,8.20
2023-05-02T03:22:38.120Z,6.80
2023-05-02T03:23:10.785Z,6.90
2023-05-02T03:23:43.465Z,5.20
2023-05-02T03:24:18.433Z,6.80
2023-05-02T03:24:45.238Z,8.20
2023-05-02T03:25:17.905Z,6.80
2023-05-02T03:25:50.738Z,7.30
2023-05-02T03:26:23.395Z,6.50
2023-05-02T03:26:56.070Z,6.00
2023-05-02T03:27:28.736Z,6.20
2023-05-02T03:28:01.397Z,7.10
2023-05-02T03:28:34.052Z,7.10
2023-05-02T03:29:06.729Z,5.60
2023-05-02T03:29:39.400Z,7.40
2023-05-02T03:30:12.074Z,6.10
2023-05-02T03:30:44.742Z,7.70
2023-05-02T03:31:17.450Z,7.00
2023-05-02T03:31:50.240Z,6.80
2023-05-02T03:32:22.916Z,6.00
2023-05-02T03:32:55.686Z,6.50
2023-05-02T03:33:28.345Z,7.30
2023-05-02T03:33:59.471Z,6.20
2023-05-02T03:34:32.116Z,7.20
2023-05-02T03:35:04.806Z,7.60
2023-05-02T03:35:37.484Z,5.20
2023-05-02T03:36:10.166Z,6.20
2023-05-02T03:36:42.846Z,6.90
2023-05-02T03:37:15.509Z,7.90
2023-05-02T03:37:48.174Z,6.10
2023-05-02T03:38:20.831Z,8.10
2023-05-02T03:38:53.512Z,7.50
2023-05-02T03:39:26.172Z,6.60
2023-05-02T03:39:59.013Z,6.00
2023-05-02T03:40:31.745Z,6.90
2023-05-02T03:41:04.419Z,5.80
2023-05-02T03:41:37.083Z,5.80
2023-05-02T03:42:09.757Z,5.80
2023-05-02T03:42:42.419Z,7.30
2023-05-02T03:43:15.103Z,7.60
2023-05-02T03:43:47.753Z,5.80
2023-05-02T03:44:20.427Z,6.90
2023-05-02T03:44:53.123Z,5.70
2023-05-02T03:45:25.766Z,7.10
2023-05-02T03:45:58.434Z,6.50
2023-05-02T03:46:31.144Z,5.50
2023-05-02T03:47:03.908Z,7.10
2023-05-02T03:47:36.618Z,6.30
2023-05-02T03:48:09.445Z,5.60
2023-05-02T03:48:42.158Z,6.00
2023-05-02T03:49:14.805Z,7.40
2023-05-02T03:49:47.472Z,5.60
2023-05-02T03:50:20.153Z,5.40
2023-05-02T03:50:52.813Z,7.10
2023-05-02T03:51:25.485Z,6.80
2023-05-02T03:51:58.145Z,6.60
2023-05-02T03:52:30.814Z,5.80
2023-05-02T03:53:03.485Z,8.20
2023-05-02T03:53:36.157Z,5.50
2023-05-02T03:54:08.829Z,7.10
2023-05-02T03:54:41.527Z,6.30
2023-05-02T03:55:14.243Z,5.80
2023-05-02T03:55:46.909Z,6.90
2023-05-02T03:56:19.564Z,7.10
2023-05-02T03:56:52.231Z,7.30
2023-05-02T03:57:24.906Z,5.00
2023-05-02T03:57:57.577Z,5.80
2023-05-02T03:58:30.239Z,6.40
2023-05-02T03:59:02.913Z,6.00
2023-05-02T03:59:35.593Z,5.10
2023-05-02T04:00:08.271Z,5.70
2023-05-02T04:00:40.934Z,6.00
2023-05-02T04:01:13.607Z,7.00
2023-05-02T04:01:46.281Z,5.00
2023-05-02T04:02:18.964Z,4.50
2023-05-02T04:02:51.729Z,5.60
2023-05-02T04:03:24.580Z,5.40
2023-05-02T04:03:50.932Z,5.70
2023-05-02T04:04:23.641Z,5.80
2023-05-02T04:04:56.318Z,7.40
2023-05-02T04:05:28.992Z,4.60
2023-05-02T04:06:01.688Z,6.50
2023-05-02T04:06:34.385Z,5.70
2023-05-02T04:07:07.089Z,6.10
2023-05-02T04:07:39.786Z,7.60
2023-05-02T04:08:12.459Z,7.00
2023-05-02T04:08:45.127Z,5.90
2023-05-02T04:09:17.788Z,7.50
2023-05-02T04:09:50.481Z,6.80
2023-05-02T04:10:23.156Z,7.40
2023-05-02T04:10:55.816Z,7.10
2023-05-02T04:11:28.535Z,6.90
2023-05-02T04:12:01.189Z,7.60
2023-05-02T04:12:33.879Z,5.80
2023-05-02T04:13:06.581Z,7.30
2023-05-02T04:13:37.659Z,6.30
2023-05-02T04:14:10.327Z,6.20
2023-05-02T04:14:43.024Z,7.70
2023-05-02T04:15:15.734Z,7.30
2023-05-02T04:15:48.446Z,6.50
2023-05-02T04:16:21.119Z,6.20
2023-05-02T04:16:53.850Z,6.20
2023-05-02T04:17:26.613Z,5.00
2023-05-02T04:17:59.388Z,6.10
2023-05-02T04:18:32.064Z,5.80
2023-05-02T04:19:04.702Z,7.30
2023-05-02T04:19:37.383Z,6.20
2023-05-02T04:20:10.057Z,6.40
2023-05-02T04:20:42.709Z,7.10
2023-05-02T04:21:15.386Z,7.50
2023-05-02T04:21:48.060Z,6.30
2023-05-02T04:22:20.728Z,5.30
2023-05-02T04:22:53.395Z,5.80
2023-05-02T04:23:26.297Z,6.90
2023-05-02T04:23:58.971Z,6.20
2023-05-02T04:24:31.639Z,6.70
2023-05-02T04:25:04.328Z,7.10
2023-05-02T04:25:36.999Z,7.20
2023-05-02T04:26:08.076Z,6.30
2023-05-02T04:26:40.745Z,5.80
2023-05-02T04:27:15.295Z,6.20
2023-05-02T04:27:41.705Z,6.50
2023-05-02T04:28:14.365Z,6.70
2023-05-02T04:28:47.039Z,6.00
2023-05-02T04:29:19.720Z,8.60
2023-05-02T04:29:52.398Z,7.60
2023-05-02T04:30:25.078Z,6.90
2023-05-02T04:30:57.903Z,4.80
2023-05-02T04:31:30.727Z,6.70
2023-05-02T04:32:03.399Z,8.30
2023-05-02T04:32:36.146Z,5.90
2023-05-02T04:33:08.885Z,7.50
2023-05-02T04:33:41.562Z,6.90
2023-05-02T04:34:14.202Z,7.20
2023-05-02T04:34:46.895Z,6.90
2023-05-02T04:35:19.557Z,7.30
2023-05-02T04:35:52.238Z,6.00
2023-05-02T04:36:24.897Z,7.60
2023-05-02T04:36:57.564Z,7.50
2023-05-02T04:37:30.239Z,7.30
2023-05-02T04:38:02.904Z,7.60
2023-05-02T04:38:35.619Z,6.80
2023-05-02T04:39:08.299Z,5.90
2023-05-02T04:39:40.939Z,7.30
2023-05-02T04:40:13.640Z,6.50
2023-05-02T04:40:46.326Z,6.70
2023-05-02T04:41:18.976Z,6.50
2023-05-02T04:41:51.649Z,7.00
2023-05-02T04:42:24.320Z,8.20
2023-05-02T04:42:56.974Z,8.10
2023-05-02T04:43:29.645Z,6.70
2023-05-02T04:44:02.332Z,7.20
2023-05-02T04:44:35.029Z,6.90
2023-05-02T04:45:07.705Z,6.40
2023-05-02T04:45:38.783Z,7.60
2023-05-02T04:46:11.487Z,6.80
2023-05-02T04:46:44.206Z,5.90
2023-05-02T04:47:16.855Z,5.80
2023-05-02T04:47:49.590Z,5.50
2023-05-02T04:48:20.607Z,8.00
2023-05-02T04:48:53.340Z,5.50
2023-05-02T04:49:25.989Z,5.80
2023-05-02T04:49:58.916Z,5.70
2023-05-02T04:50:25.222Z,6.20
2023-05-02T04:50:57.896Z,6.70
2023-05-02T04:51:30.590Z,6.30
2023-05-02T04:52:03.258Z,7.20
2023-05-02T04:52:35.917Z,5.80
2023-05-02T04:53:08.597Z,10.00
2023-05-02T04:53:41.255Z,7.00
2023-05-02T04:54:13.932Z,6.90
2023-05-02T04:54:46.592Z,6.60
2023-05-02T04:55:19.265Z,10.20
2023-05-02T04:55:51.934Z,5.70
2023-05-02T04:56:24.622Z,7.20
2023-05-02T04:56:57.284Z,7.70
2023-05-02T04:57:29.959Z,9.00
2023-05-02T04:58:02.626Z,6.50
2023-05-02T04:58:35.313Z,7.00
2023-05-02T04:59:07.971Z,7.20
2023-05-02T04:59:40.687Z,6.20
2023-05-02T05:00:13.338Z,6.90
2023-05-02T05:00:46.025Z,5.60
2023-05-02T05:01:18.768Z,7.80
2023-05-02T05:01:51.485Z,5.70
2023-05-02T05:02:24.183Z,5.90
2023-05-02T05:02:58.487Z,5.30
2023-05-02T05:03:25.529Z,7.20
2023-05-02T05:03:56.718Z,6.60
2023-05-02T05:04:23.124Z,8.60
2023-05-02T05:04:55.858Z,8.20
2023-05-02T05:05:28.666Z,5.50
2023-05-02T05:06:01.365Z,5.80
2023-05-02T05:06:34.053Z,5.50
2023-05-02T05:07:06.734Z,6.40
2023-05-02T05:07:39.411Z,8.40
2023-05-02T05:08:12.074Z,6.10
2023-05-02T05:08:44.756Z,7.40
2023-05-02T05:09:17.434Z,7.20
2023-05-02T05:09:48.531Z,7.00
2023-05-02T05:10:21.218Z,6.90
2023-05-02T05:10:53.892Z,9.30
2023-05-02T05:11:26.568Z,7.60
2023-05-02T05:11:59.217Z,6.00
2023-05-02T05:12:31.885Z,7.60
2023-05-02T05:13:04.550Z,6.20
2023-05-02T05:13:37.216Z,7.40
2023-05-02T05:14:09.890Z,8.00
2023-05-02T05:14:42.554Z,5.20
2023-05-02T05:15:15.232Z,7.90
2023-05-02T05:15:47.942Z,8.90
2023-05-02T05:16:20.640Z,6.50
2023-05-02T05:16:53.321Z,7.70
2023-05-02T05:17:26.053Z,8.30
2023-05-02T05:17:58.853Z,5.90
2023-05-02T05:18:31.565Z,6.00
2023-05-02T05:19:04.375Z,8.20
2023-05-02T05:19:37.141Z,8.00
2023-05-02T05:20:09.839Z,7.00
2023-05-02T05:20:42.492Z,6.40
2023-05-02T05:21:15.174Z,6.90
2023-05-02T05:21:47.838Z,6.60
2023-05-02T05:22:20.490Z,5.60
2023-05-02T05:22:53.166Z,6.10
2023-05-02T05:23:25.832Z,7.40
2023-05-02T05:23:58.492Z,5.70
2023-05-02T05:24:31.204Z,7.60
2023-05-02T05:25:03.966Z,6.90
2023-05-02T05:25:36.660Z,5.80
2023-05-02T05:26:09.342Z,5.20
2023-05-02T05:26:42.015Z,6.60
2023-05-02T05:27:14.683Z,8.40
2023-05-02T05:27:47.352Z,5.70
2023-05-02T05:28:20.028Z,6.30
2023-05-02T05:28:52.698Z,5.70
2023-05-02T05:29:25.390Z,7.60
2023-05-02T05:29:58.228Z,6.10
2023-05-02T05:30:31.023Z,6.80
2023-05-02T05:31:03.707Z,7.10
2023-05-02T05:31:36.417Z,6.40
2023-05-02T05:32:09.159Z,8.20
2023-05-02T05:32:41.874Z,6.90
2023-05-02T05:33:14.622Z,7.10
2023-05-02T05:33:47.384Z,7.40
2023-05-02T05:34:20.093Z,5.10
2023-05-02T05:34:52.748Z,6.80
2023-05-02T05:35:25.396Z,8.90
2023-05-02T05:35:58.067Z,7.10
2023-05-02T05:36:30.753Z,6.70
2023-05-02T05:37:03.916Z,6.40
2023-05-02T05:37:30.549Z,6.30
2023-05-02T05:38:03.232Z,8.00
2023-05-02T05:38:35.883Z,8.10
2023-05-02T05:39:08.560Z,8.40
2023-05-02T05:39:41.230Z,7.70
2023-05-02T05:40:13.909Z,5.90
2023-05-02T05:40:46.586Z,7.90
2023-05-02T05:41:19.244Z,7.50
2023-05-02T05:41:51.933Z,6.80
2023-05-02T05:42:24.613Z,7.30
2023-05-02T05:42:57.298Z,6.70
2023-05-02T05:43:29.978Z,6.10
2023-05-02T05:44:02.635Z,8.60
2023-05-02T05:44:35.316Z,6.30
2023-05-02T05:45:07.999Z,7.40
2023-05-02T05:45:40.669Z,8.10
2023-05-02T05:46:13.337Z,9.70
2023-05-02T05:46:46.090Z,7.30
2023-05-02T05:47:18.831Z,7.60
2023-05-02T05:47:51.503Z,7.90
2023-05-02T05:48:24.221Z,9.00
2023-05-02T05:48:56.891Z,10.10
2023-05-02T05:49:29.600Z,7.00
2023-05-02T05:50:02.550Z,10.50
2023-05-02T05:50:28.961Z,8.80
2023-05-02T05:51:01.632Z,8.70
2023-05-02T05:51:34.305Z,7.80
2023-05-02T05:52:06.993Z,6.80
2023-05-02T05:52:39.657Z,8.20
2023-05-02T05:53:12.332Z,9.20
2023-05-02T05:53:44.997Z,8.80
2023-05-02T05:54:17.675Z,6.00
2023-05-02T05:54:50.331Z,9.90
2023-05-02T05:55:22.998Z,7.80
2023-05-02T05:55:55.669Z,6.90
2023-05-02T05:56:28.326Z,8.40
2023-05-02T05:57:01.030Z,9.40
2023-05-02T05:57:33.705Z,7.10
2023-05-02T05:58:06.362Z,8.50
2023-05-02T05:58:39.037Z,9.00
2023-05-02T05:59:11.722Z,7.10
2023-05-02T05:59:44.394Z,7.90
2023-05-02T06:00:17.041Z,8.10
2023-05-02T06:00:49.734Z,7.40
2023-05-02T06:01:22.380Z,9.20
2023-05-02T06:01:55.052Z,8.70
2023-05-02T06:02:27.834Z,8.80
2023-05-02T06:03:00.645Z,7.60
2023-05-02T06:03:33.510Z,9.20
2023-05-02T06:03:59.899Z,6.50
2023-05-02T06:04:32.710Z,8.70
2023-05-02T06:05:05.474Z,10.30
2023-05-02T06:05:38.166Z,10.40
2023-05-02T06:06:10.860Z,8.70
2023-05-02T06:06:43.560Z,8.20
2023-05-02T06:07:16.227Z,8.30
2023-05-02T06:07:48.910Z,7.30
2023-05-02T06:08:21.587Z,8.30
2023-05-02T06:08:54.269Z,9.20
2023-05-02T06:09:26.951Z,8.60
2023-05-02T06:09:59.969Z,9.40
2023-05-02T06:10:26.293Z,8.40
2023-05-02T06:10:58.969Z,9.30
2023-05-02T06:11:31.616Z,9.70
2023-05-02T06:12:04.309Z,9.90
2023-05-02T06:12:36.966Z,8.50
2023-05-02T06:13:09.635Z,9.40
2023-05-02T06:13:42.302Z,10.10
2023-05-02T06:14:14.984Z,10.30
2023-05-02T06:14:47.622Z,9.30
2023-05-02T06:15:20.289Z,9.80
2023-05-02T06:15:53.003Z,10.90
2023-05-02T06:16:25.711Z,9.60
2023-05-02T06:16:58.353Z,8.10
2023-05-02T06:17:31.048Z,8.50
2023-05-02T06:18:03.797Z,12.90
2023-05-02T06:18:36.542Z,7.70
2023-05-02T06:19:09.208Z,9.50
2023-05-02T06:19:41.898Z,9.60
2023-05-02T06:20:15.639Z,10.50
2023-05-02T06:20:42.717Z,10.30
2023-05-02T06:21:15.379Z,8.30
2023-05-02T06:21:48.033Z,10.60
2023-05-02T06:22:20.724Z,7.30
2023-05-02T06:22:53.376Z,10.80
2023-05-02T06:23:26.046Z,9.60
2023-05-02T06:23:58.714Z,9.80
2023-05-02T06:24:31.393Z,8.70
2023-05-02T06:25:04.059Z,10.80
2023-05-02T06:25:36.719Z,9.70
2023-05-02T06:26:09.387Z,9.60
2023-05-02T06:26:42.064Z,10.60
2023-05-02T06:27:14.753Z,8.70
2023-05-02T06:27:47.463Z,8.80
2023-05-02T06:28:20.133Z,10.70
2023-05-02T06:28:52.802Z,12.30
2023-05-02T06:29:25.472Z,11.40
2023-05-02T06:29:58.438Z,10.80
2023-05-02T06:30:24.782Z,10.70
2023-05-02T06:30:57.433Z,12.20
2023-05-02T06:31:30.139Z,10.00
2023-05-02T06:32:02.844Z,10.70
2023-05-02T06:32:35.582Z,12.70
2023-05-02T06:33:08.286Z,10.80
2023-05-02T06:33:40.974Z,9.00
2023-05-02T06:34:13.650Z,10.70
2023-05-02T06:34:46.344Z,9.50
2023-05-02T06:35:18.975Z,11.10
2023-05-02T06:35:51.642Z,11.10
2023-05-02T06:36:24.306Z,9.90
2023-05-02T06:36:56.990Z,12.70
2023-05-02T06:37:29.647Z,9.50
2023-05-02T06:38:02.331Z,11.40
2023-05-02T06:38:35.016Z,10.10
2023-05-02T06:39:07.687Z,10.90
2023-05-02T06:39:40.358Z,11.30
2023-05-02T06:40:13.053Z,10.90
2023-05-02T06:40:45.733Z,13.90
2023-05-02T06:41:18.535Z,10.20
2023-05-02T06:41:51.222Z,11.30
2023-05-02T06:42:23.891Z,10.30
2023-05-02T06:42:56.586Z,11.40
2023-05-02T06:43:29.269Z,10.40
2023-05-02T06:44:01.940Z,8.70
2023-05-02T06:44:34.610Z,11.30
2023-05-02T06:45:07.267Z,10.10
2023-05-02T06:45:39.936Z,10.20
2023-05-02T06:46:12.610Z,10.00
2023-05-02T06:46:45.328Z,11.80
2023-05-02T06:47:18.035Z,10.10
2023-05-02T06:47:50.748Z,11.20
2023-05-02T06:48:23.458Z,8.80
2023-05-02T06:48:56.137Z,11.40
2023-05-02T06:49:28.812Z,12.20
2023-05-02T06:50:01.730Z,10.10
2023-05-02T06:50:28.184Z,9.20
2023-05-02T06:51:00.855Z,12.00
2023-05-02T06:51:33.506Z,10.80
2023-05-02T06:52:06.174Z,10.50
2023-05-02T06:52:38.865Z,10.70
2023-05-02T06:53:11.538Z,9.90
2023-05-02T06:53:44.219Z,12.50
2023-05-02T06:54:16.881Z,10.30
2023-05-02T06:54:49.544Z,11.80
2023-05-02T06:55:22.213Z,10.60
2023-05-02T06:55:54.886Z,11.00
2023-05-02T06:56:27.560Z,13.00
2023-05-02T06:57:00.214Z,10.50
2023-05-02T06:57:32.904Z,9.70
2023-05-02T06:58:05.576Z,8.70
2023-05-02T06:58:38.267Z,10.60
2023-05-02T06:59:10.944Z,11.80
2023-05-02T06:59:43.621Z,9.90
2023-05-02T07:00:16.295Z,9.50
2023-05-02T07:00:49.096Z,11.30
2023-05-02T07:01:21.750Z,9.40
2023-05-02T07:01:54.408Z,9.80
2023-05-02T07:02:27.179Z,8.10
2023-05-02T07:02:59.885Z,8.50
2023-05-02T07:03:32.533Z,9.80
2023-05-02T07:04:05.234Z,8.60
2023-05-02T07:04:37.880Z,8.80
2023-05-02T07:05:10.631Z,10.10
2023-05-02T07:05:43.286Z,9.10
2023-05-02T07:06:15.998Z,8.80
2023-05-02T07:06:48.891Z,10.40
2023-05-02T07:07:15.177Z,9.30
2023-05-02T07:07:47.890Z,8.80
2023-05-02T07:08:20.569Z,7.90
2023-05-02T07:08:53.241Z,7.90
2023-05-02T07:09:25.920Z,10.40
2023-05-02T07:09:58.796Z,10.60
2023-05-02T07:10:25.149Z,7.80
2023-05-02T07:10:57.853Z,9.90
2023-05-02T07:11:30.528Z,8.50